sensor_id;sensor_type;location;lat;lon;timestamp;temperature;humidity
36710;DHT22;22694;51.040;3.684;2022-09-17T00:01:57;17.20;88.10
36710;DHT22;22694;51.040;3.684;2022-09-17T00:04:23;17.20;88.20
36710;DHT22;22694;51.040;3.684;2022-09-17T00:06:48;17.20;88.30
36710;DHT22;22694;51.040;3.684;2022-09-17T00:09:15;17.20;88.30
36710;DHT22;22694;51.040;3.684;2022-09-17T00:11:42;17.10;88.30
36710;DHT22;22694;51.040;3.684;2022-09-17T00:14:14;17.20;88.30
36710;DHT22;22694;51.040;3.684;2022-09-17T00:16:45;17.20;88.40
36710;DHT22;22694;51.040;3.684;2022-09-17T00:19:22;17.20;88.40
36710;DHT22;22694;51.040;3.684;2022-09-17T00:21:48;17.10;88.40
36710;DHT22;22694;51.040;3.684;2022-09-17T00:24:15;17.10;88.40
36710;DHT22;22694;51.040;3.684;2022-09-17T00:26:41;17.10;88.40
36710;DHT22;22694;51.040;3.684;2022-09-17T00:29:07;17.10;88.40
36710;DHT22;22694;51.040;3.684;2022-09-17T00:31:33;17.10;88.50
36710;DHT22;22694;51.040;3.684;2022-09-17T00:33:59;17.10;88.40
36710;DHT22;22694;51.040;3.684;2022-09-17T00:36:26;17.10;88.50
36710;DHT22;22694;51.040;3.684;2022-09-17T00:38:53;17.10;88.50
36710;DHT22;22694;51.040;3.684;2022-09-17T00:41:20;17.10;88.50
36710;DHT22;22694;51.040;3.684;2022-09-17T00:43:51;17.10;88.50
36710;DHT22;22694;51.040;3.684;2022-09-17T00:46:36;17.10;88.60
36710;DHT22;22694;51.040;3.684;2022-09-17T00:51:48;17.00;88.60
36710;DHT22;22694;51.040;3.684;2022-09-17T00:54:17;17.00;88.60
36710;DHT22;22694;51.040;3.684;2022-09-17T00:56:43;17.00;88.60
36710;DHT22;22694;51.040;3.684;2022-09-17T00:59:09;17.00;88.60
36710;DHT22;22694;51.040;3.684;2022-09-17T01:01:35;17.00;88.70
36710;DHT22;22694;51.040;3.684;2022-09-17T01:04:01;17.00;88.70
36710;DHT22;22694;51.040;3.684;2022-09-17T01:06:46;17.00;88.60
36710;DHT22;22694;51.040;3.684;2022-09-17T01:09:38;17.00;88.70
36710;DHT22;22694;51.040;3.684;2022-09-17T01:15:14;17.00;88.70
36710;DHT22;22694;51.040;3.684;2022-09-17T01:29:03;16.90;88.80
36710;DHT22;22694;51.040;3.684;2022-09-17T01:31:50;16.90;88.80
36710;DHT22;22694;51.040;3.684;2022-09-17T01:42:03;16.90;88.80
36710;DHT22;22694;51.040;3.684;2022-09-17T01:44:54;16.90;88.90
36710;DHT22;22694;51.040;3.684;2022-09-17T01:47:28;16.90;88.90
36710;DHT22;22694;51.040;3.684;2022-09-17T01:50:00;16.90;89.00
36710;DHT22;22694;51.040;3.684;2022-09-17T01:52:28;16.90;88.90
36710;DHT22;22694;51.040;3.684;2022-09-17T01:55:00;16.80;88.90
36710;DHT22;22694;51.040;3.684;2022-09-17T01:57:31;16.80;89.00
36710;DHT22;22694;51.040;3.684;2022-09-17T02:00:07;16.80;88.90
36710;DHT22;22694;51.040;3.684;2022-09-17T02:02:59;16.80;89.00
36710;DHT22;22694;51.040;3.684;2022-09-17T02:05:30;16.80;89.00
36710;DHT22;22694;51.040;3.684;2022-09-17T02:08:12;16.80;89.00
36710;DHT22;22694;51.040;3.684;2022-09-17T02:10:44;16.80;89.10
36710;DHT22;22694;51.040;3.684;2022-09-17T02:13:23;16.80;89.70
36710;DHT22;22694;51.040;3.684;2022-09-17T02:16:05;16.80;89.00
36710;DHT22;22694;51.040;3.684;2022-09-17T02:24:55;16.80;88.90
36710;DHT22;22694;51.040;3.684;2022-09-17T02:30:33;16.70;89.00
36710;DHT22;22694;51.040;3.684;2022-09-17T02:33:01;16.70;89.10
36710;DHT22;22694;51.040;3.684;2022-09-17T02:35:30;16.70;89.00
36710;DHT22;22694;51.040;3.684;2022-09-17T02:37:56;16.70;89.10
36710;DHT22;22694;51.040;3.684;2022-09-17T02:40:22;16.70;89.10
36710;DHT22;22694;51.040;3.684;2022-09-17T02:48:37;16.60;89.00
36710;DHT22;22694;51.040;3.684;2022-09-17T02:53:58;16.60;89.10
36710;DHT22;22694;51.040;3.684;2022-09-17T02:56:36;16.60;89.10
36710;DHT22;22694;51.040;3.684;2022-09-17T02:59:32;16.60;89.10
36710;DHT22;22694;51.040;3.684;2022-09-17T03:04:42;16.50;89.10
36710;DHT22;22694;51.040;3.684;2022-09-17T03:07:12;16.50;89.10
36710;DHT22;22694;51.040;3.684;2022-09-17T03:09:39;16.50;89.10
36710;DHT22;22694;51.040;3.684;2022-09-17T03:12:06;16.50;89.10
36710;DHT22;22694;51.040;3.684;2022-09-17T03:14:32;16.50;89.10
36710;DHT22;22694;51.040;3.684;2022-09-17T03:16:57;16.50;89.10
36710;DHT22;22694;51.040;3.684;2022-09-17T03:19:23;16.50;89.10
36710;DHT22;22694;51.040;3.684;2022-09-17T03:21:48;16.50;89.20
36710;DHT22;22694;51.040;3.684;2022-09-17T03:24:14;16.50;89.10
36710;DHT22;22694;51.040;3.684;2022-09-17T03:26:40;16.50;89.20
36710;DHT22;22694;51.040;3.684;2022-09-17T03:29:05;16.40;89.10
36710;DHT22;22694;51.040;3.684;2022-09-17T03:31:31;16.40;89.00
36710;DHT22;22694;51.040;3.684;2022-09-17T03:33:56;16.40;89.00
36710;DHT22;22694;51.040;3.684;2022-09-17T03:36:23;16.50;89.10
36710;DHT22;22694;51.040;3.684;2022-09-17T03:38:56;16.40;89.10
36710;DHT22;22694;51.040;3.684;2022-09-17T03:41:22;16.40;89.10
36710;DHT22;22694;51.040;3.684;2022-09-17T03:43:47;16.40;89.70
36710;DHT22;22694;51.040;3.684;2022-09-17T03:46:13;16.40;89.10
36710;DHT22;22694;51.040;3.684;2022-09-17T03:48:39;16.40;89.10
36710;DHT22;22694;51.040;3.684;2022-09-17T03:51:05;16.40;89.10
36710;DHT22;22694;51.040;3.684;2022-09-17T03:53:31;16.40;89.10
36710;DHT22;22694;51.040;3.684;2022-09-17T03:56:01;16.40;89.10
36710;DHT22;22694;51.040;3.684;2022-09-17T03:58:29;16.40;89.20
36710;DHT22;22694;51.040;3.684;2022-09-17T04:00:55;16.40;89.20
36710;DHT22;22694;51.040;3.684;2022-09-17T04:03:26;16.40;89.20
36710;DHT22;22694;51.040;3.684;2022-09-17T04:05:52;16.30;89.20
36710;DHT22;22694;51.040;3.684;2022-09-17T04:08:17;16.30;89.20
36710;DHT22;22694;51.040;3.684;2022-09-17T04:10:44;16.30;89.30
36710;DHT22;22694;51.040;3.684;2022-09-17T04:13:10;16.30;89.30
36710;DHT22;22694;51.040;3.684;2022-09-17T04:15:36;16.30;89.30
36710;DHT22;22694;51.040;3.684;2022-09-17T04:18:02;16.30;89.30
36710;DHT22;22694;51.040;3.684;2022-09-17T04:20:28;16.30;89.30
36710;DHT22;22694;51.040;3.684;2022-09-17T04:22:54;16.40;90.30
36710;DHT22;22694;51.040;3.684;2022-09-17T04:25:19;16.50;90.40
36710;DHT22;22694;51.040;3.684;2022-09-17T04:27:45;16.60;90.30
36710;DHT22;22694;51.040;3.684;2022-09-17T04:30:12;16.60;90.00
36710;DHT22;22694;51.040;3.684;2022-09-17T04:32:38;16.60;89.70
36710;DHT22;22694;51.040;3.684;2022-09-17T04:35:04;16.60;89.50
36710;DHT22;22694;51.040;3.684;2022-09-17T04:37:29;16.60;89.40
36710;DHT22;22694;51.040;3.684;2022-09-17T04:39:55;16.60;90.00
36710;DHT22;22694;51.040;3.684;2022-09-17T04:42:21;16.70;90.00
36710;DHT22;22694;51.040;3.684;2022-09-17T04:44:47;16.70;89.70
36710;DHT22;22694;51.040;3.684;2022-09-17T04:47:12;16.70;89.60
36710;DHT22;22694;51.040;3.684;2022-09-17T04:49:38;16.70;89.50
36710;DHT22;22694;51.040;3.684;2022-09-17T04:52:04;16.70;89.50
36710;DHT22;22694;51.040;3.684;2022-09-17T04:54:30;16.70;89.40
36710;DHT22;22694;51.040;3.684;2022-09-17T04:56:55;16.70;89.40
36710;DHT22;22694;51.040;3.684;2022-09-17T04:59:21;16.70;89.50
36710;DHT22;22694;51.040;3.684;2022-09-17T05:01:47;16.70;89.30
36710;DHT22;22694;51.040;3.684;2022-09-17T05:04:13;16.70;89.30
36710;DHT22;22694;51.040;3.684;2022-09-17T05:06:39;16.70;89.20
36710;DHT22;22694;51.040;3.684;2022-09-17T05:09:05;16.70;89.10
36710;DHT22;22694;51.040;3.684;2022-09-17T05:11:31;16.70;89.10
36710;DHT22;22694;51.040;3.684;2022-09-17T05:13:56;16.70;89.10
36710;DHT22;22694;51.040;3.684;2022-09-17T05:16:22;16.70;89.00
36710;DHT22;22694;51.040;3.684;2022-09-17T05:18:47;16.70;88.90
36710;DHT22;22694;51.040;3.684;2022-09-17T05:21:15;16.70;88.90
36710;DHT22;22694;51.040;3.684;2022-09-17T05:23:41;16.70;89.00
36710;DHT22;22694;51.040;3.684;2022-09-17T05:26:06;16.70;89.00
36710;DHT22;22694;51.040;3.684;2022-09-17T05:28:32;16.70;89.00
36710;DHT22;22694;51.040;3.684;2022-09-17T05:30:59;16.70;89.00
36710;DHT22;22694;51.040;3.684;2022-09-17T05:33:25;16.70;89.10
36710;DHT22;22694;51.040;3.684;2022-09-17T05:35:50;16.60;89.00
36710;DHT22;22694;51.040;3.684;2022-09-17T05:38:16;16.60;89.10
36710;DHT22;22694;51.040;3.684;2022-09-17T05:40:43;16.80;89.10
36710;DHT22;22694;51.040;3.684;2022-09-17T05:43:09;16.70;89.10
36710;DHT22;22694;51.040;3.684;2022-09-17T05:45:36;16.60;89.00
36710;DHT22;22694;51.040;3.684;2022-09-17T05:48:03;16.60;89.00
36710;DHT22;22694;51.040;3.684;2022-09-17T05:50:29;16.60;89.10
36710;DHT22;22694;51.040;3.684;2022-09-17T05:52:56;16.60;89.20
36710;DHT22;22694;51.040;3.684;2022-09-17T05:55:22;16.70;89.40
36710;DHT22;22694;51.040;3.684;2022-09-17T05:57:49;16.70;89.30
36710;DHT22;22694;51.040;3.684;2022-09-17T06:00:15;16.70;89.30
36710;DHT22;22694;51.040;3.684;2022-09-17T06:02:40;16.70;89.40
36710;DHT22;22694;51.040;3.684;2022-09-17T06:05:06;16.70;89.50
36710;DHT22;22694;51.040;3.684;2022-09-17T06:07:34;16.70;90.30
36710;DHT22;22694;51.040;3.684;2022-09-17T06:10:01;16.80;90.30
36710;DHT22;22694;51.040;3.684;2022-09-17T06:12:26;16.90;90.20
36710;DHT22;22694;51.040;3.684;2022-09-17T06:14:52;16.80;90.10
36710;DHT22;22694;51.040;3.684;2022-09-17T06:17:18;16.90;90.10
36710;DHT22;22694;51.040;3.684;2022-09-17T06:19:43;16.80;89.30
36710;DHT22;22694;51.040;3.684;2022-09-17T06:22:09;16.80;88.90
36710;DHT22;22694;51.040;3.684;2022-09-17T06:24:34;16.70;88.70
36710;DHT22;22694;51.040;3.684;2022-09-17T06:27:00;16.70;88.60
36710;DHT22;22694;51.040;3.684;2022-09-17T06:29:26;16.70;88.70
36710;DHT22;22694;51.040;3.684;2022-09-17T06:31:52;16.60;88.60
36710;DHT22;22694;51.040;3.684;2022-09-17T06:34:18;16.70;88.70
36710;DHT22;22694;51.040;3.684;2022-09-17T06:36:44;16.50;88.60
36710;DHT22;22694;51.040;3.684;2022-09-17T06:39:10;16.60;88.70
36710;DHT22;22694;51.040;3.684;2022-09-17T06:41:36;16.50;88.70
36710;DHT22;22694;51.040;3.684;2022-09-17T06:44:03;16.50;88.90
36710;DHT22;22694;51.040;3.684;2022-09-17T06:46:28;16.50;88.90
36710;DHT22;22694;51.040;3.684;2022-09-17T06:48:54;16.50;88.90
36710;DHT22;22694;51.040;3.684;2022-09-17T06:51:20;16.50;88.80
36710;DHT22;22694;51.040;3.684;2022-09-17T06:53:47;16.50;88.90
36710;DHT22;22694;51.040;3.684;2022-09-17T06:56:13;16.50;89.10
36710;DHT22;22694;51.040;3.684;2022-09-17T06:58:40;16.50;89.00
36710;DHT22;22694;51.040;3.684;2022-09-17T07:01:10;16.50;89.00
36710;DHT22;22694;51.040;3.684;2022-09-17T07:03:35;16.50;89.10
36710;DHT22;22694;51.040;3.684;2022-09-17T07:06:02;16.50;89.00
36710;DHT22;22694;51.040;3.684;2022-09-17T07:08:27;16.40;89.00
36710;DHT22;22694;51.040;3.684;2022-09-17T07:10:57;16.40;89.00
36710;DHT22;22694;51.040;3.684;2022-09-17T07:13:23;16.40;88.90
36710;DHT22;22694;51.040;3.684;2022-09-17T07:15:57;16.40;89.10
36710;DHT22;22694;51.040;3.684;2022-09-17T07:18:23;16.40;89.10
36710;DHT22;22694;51.040;3.684;2022-09-17T07:20:57;16.40;89.10
36710;DHT22;22694;51.040;3.684;2022-09-17T07:23:24;16.40;89.10
36710;DHT22;22694;51.040;3.684;2022-09-17T07:25:54;16.50;90.00
36710;DHT22;22694;51.040;3.684;2022-09-17T07:28:20;16.60;91.50
36710;DHT22;22694;51.040;3.684;2022-09-17T07:30:47;16.90;92.30
36710;DHT22;22694;51.040;3.684;2022-09-17T07:33:14;17.10;92.10
36710;DHT22;22694;51.040;3.684;2022-09-17T07:35:40;17.10;91.30
36710;DHT22;22694;51.040;3.684;2022-09-17T07:38:06;17.10;90.90
36710;DHT22;22694;51.040;3.684;2022-09-17T07:40:31;17.10;90.50
36710;DHT22;22694;51.040;3.684;2022-09-17T07:42:57;17.20;91.20
36710;DHT22;22694;51.040;3.684;2022-09-17T07:45:23;17.40;91.50
36710;DHT22;22694;51.040;3.684;2022-09-17T07:47:49;17.50;91.10
36710;DHT22;22694;51.040;3.684;2022-09-17T07:50:15;17.40;90.60
36710;DHT22;22694;51.040;3.684;2022-09-17T07:52:47;17.30;90.20
36710;DHT22;22694;51.040;3.684;2022-09-17T07:55:13;17.20;89.90
36710;DHT22;22694;51.040;3.684;2022-09-17T07:57:39;17.20;89.60
36710;DHT22;22694;51.040;3.684;2022-09-17T08:00:06;17.10;89.60
36710;DHT22;22694;51.040;3.684;2022-09-17T08:02:32;17.10;89.60
36710;DHT22;22694;51.040;3.684;2022-09-17T08:04:57;17.10;89.70
36710;DHT22;22694;51.040;3.684;2022-09-17T08:07:23;17.00;89.70
36710;DHT22;22694;51.040;3.684;2022-09-17T08:09:49;17.00;89.90
36710;DHT22;22694;51.040;3.684;2022-09-17T08:12:14;17.00;89.90
36710;DHT22;22694;51.040;3.684;2022-09-17T08:14:42;17.00;90.20
36710;DHT22;22694;51.040;3.684;2022-09-17T08:17:08;17.00;90.00
36710;DHT22;22694;51.040;3.684;2022-09-17T08:19:34;17.00;90.00
36710;DHT22;22694;51.040;3.684;2022-09-17T08:21:59;17.00;90.00
36710;DHT22;22694;51.040;3.684;2022-09-17T08:24:25;17.10;90.10
36710;DHT22;22694;51.040;3.684;2022-09-17T08:26:52;17.00;90.10
36710;DHT22;22694;51.040;3.684;2022-09-17T08:29:17;17.00;90.20
36710;DHT22;22694;51.040;3.684;2022-09-17T08:31:43;17.00;90.20
36710;DHT22;22694;51.040;3.684;2022-09-17T08:34:09;17.00;90.20
36710;DHT22;22694;51.040;3.684;2022-09-17T08:36:34;17.00;90.20
36710;DHT22;22694;51.040;3.684;2022-09-17T08:39:01;17.00;90.20
36710;DHT22;22694;51.040;3.684;2022-09-17T08:49:51;17.10;90.30
36710;DHT22;22694;51.040;3.684;2022-09-17T09:06:07;17.30;90.50
36710;DHT22;22694;51.040;3.684;2022-09-17T09:08:45;17.30;90.40
36710;DHT22;22694;51.040;3.684;2022-09-17T09:11:16;17.30;90.40
36710;DHT22;22694;51.040;3.684;2022-09-17T09:13:48;17.30;90.40
36710;DHT22;22694;51.040;3.684;2022-09-17T09:18:41;17.50;90.90
36710;DHT22;22694;51.040;3.684;2022-09-17T09:21:26;17.50;90.90
36710;DHT22;22694;51.040;3.684;2022-09-17T09:23:56;17.50;90.80
36710;DHT22;22694;51.040;3.684;2022-09-17T09:26:45;17.50;90.80
36710;DHT22;22694;51.040;3.684;2022-09-17T09:31:53;17.60;91.90
36710;DHT22;22694;51.040;3.684;2022-09-17T09:34:24;17.70;91.80
36710;DHT22;22694;51.040;3.684;2022-09-17T09:36:50;17.80;91.50
36710;DHT22;22694;51.040;3.684;2022-09-17T09:39:23;17.80;91.70
36710;DHT22;22694;51.040;3.684;2022-09-17T09:41:57;17.80;91.50
36710;DHT22;22694;51.040;3.684;2022-09-17T09:44:25;17.80;91.70
36710;DHT22;22694;51.040;3.684;2022-09-17T09:52:17;17.90;92.80
36710;DHT22;22694;51.040;3.684;2022-09-17T09:57:41;18.00;93.60
36710;DHT22;22694;51.040;3.684;2022-09-17T10:00:37;18.00;93.50
36710;DHT22;22694;51.040;3.684;2022-09-17T10:03:05;18.10;93.40
36710;DHT22;22694;51.040;3.684;2022-09-17T10:05:34;17.90;92.10
36710;DHT22;22694;51.040;3.684;2022-09-17T10:08:10;18.00;92.30
36710;DHT22;22694;51.040;3.684;2022-09-17T10:10:52;18.20;92.60
36710;DHT22;22694;51.040;3.684;2022-09-17T10:13:19;18.20;92.60
36710;DHT22;22694;51.040;3.684;2022-09-17T10:15:44;18.20;92.70
36710;DHT22;22694;51.040;3.684;2022-09-17T10:18:15;18.30;92.70
36710;DHT22;22694;51.040;3.684;2022-09-17T10:20:57;18.40;92.80
36710;DHT22;22694;51.040;3.684;2022-09-17T10:23:25;18.50;92.70
36710;DHT22;22694;51.040;3.684;2022-09-17T10:25:52;18.50;92.50
36710;DHT22;22694;51.040;3.684;2022-09-17T10:31:01;18.60;92.20
36710;DHT22;22694;51.040;3.684;2022-09-17T10:33:31;18.60;92.30
36710;DHT22;22694;51.040;3.684;2022-09-17T10:36:05;18.60;92.40
36710;DHT22;22694;51.040;3.684;2022-09-17T10:41:09;18.70;92.60
36710;DHT22;22694;51.040;3.684;2022-09-17T10:43:35;18.70;92.70
36710;DHT22;22694;51.040;3.684;2022-09-17T10:46:01;18.80;92.70
36710;DHT22;22694;51.040;3.684;2022-09-17T10:48:31;18.80;92.60
36710;DHT22;22694;51.040;3.684;2022-09-17T10:50:57;18.80;92.40
36710;DHT22;22694;51.040;3.684;2022-09-17T10:53:24;18.70;92.50
36710;DHT22;22694;51.040;3.684;2022-09-17T10:56:04;18.60;92.10
36710;DHT22;22694;51.040;3.684;2022-09-17T10:59:11;18.60;92.10
36710;DHT22;22694;51.040;3.684;2022-09-17T11:04:47;18.60;92.10
36710;DHT22;22694;51.040;3.684;2022-09-17T11:09:59;18.50;92.00
36710;DHT22;22694;51.040;3.684;2022-09-17T11:12:35;18.50;92.00
36710;DHT22;22694;51.040;3.684;2022-09-17T11:32:14;18.70;91.80
36710;DHT22;22694;51.040;3.684;2022-09-17T11:34:45;18.70;91.80
36710;DHT22;22694;51.040;3.684;2022-09-17T11:40:26;18.80;91.70
36710;DHT22;22694;51.040;3.684;2022-09-17T11:43:02;18.80;91.70
36710;DHT22;22694;51.040;3.684;2022-09-17T11:48:26;18.90;91.60
36710;DHT22;22694;51.040;3.684;2022-09-17T11:51:06;18.90;91.60
36710;DHT22;22694;51.040;3.684;2022-09-17T11:53:50;18.90;91.50
36710;DHT22;22694;51.040;3.684;2022-09-17T11:56:24;18.90;91.50
36710;DHT22;22694;51.040;3.684;2022-09-17T12:01:49;19.00;91.50
36710;DHT22;22694;51.040;3.684;2022-09-17T12:07:33;19.10;91.50
36710;DHT22;22694;51.040;3.684;2022-09-17T12:12:49;19.20;91.40
36710;DHT22;22694;51.040;3.684;2022-09-17T12:15:23;19.20;91.30
36710;DHT22;22694;51.040;3.684;2022-09-17T12:18:01;19.20;91.30
36710;DHT22;22694;51.040;3.684;2022-09-17T12:20:35;19.20;91.20
36710;DHT22;22694;51.040;3.684;2022-09-17T12:23:08;19.20;91.20
36710;DHT22;22694;51.040;3.684;2022-09-17T12:26:40;19.20;91.20
36710;DHT22;22694;51.040;3.684;2022-09-17T12:34:37;19.30;91.20
36710;DHT22;22694;51.040;3.684;2022-09-17T12:37:48;19.30;91.10
36710;DHT22;22694;51.040;3.684;2022-09-17T12:40:27;19.40;91.20
36710;DHT22;22694;51.040;3.684;2022-09-17T12:45:45;19.40;91.10
36710;DHT22;22694;51.040;3.684;2022-09-17T12:53:41;19.60;91.00
36710;DHT22;22694;51.040;3.684;2022-09-17T12:59:04;19.70;90.60
36710;DHT22;22694;51.040;3.684;2022-09-17T13:10:22;19.80;90.80
36710;DHT22;22694;51.040;3.684;2022-09-17T13:13:00;19.80;90.70
36710;DHT22;22694;51.040;3.684;2022-09-17T13:18:53;19.80;90.60
36710;DHT22;22694;51.040;3.684;2022-09-17T13:21:48;19.80;90.40
36710;DHT22;22694;51.040;3.684;2022-09-17T13:24:18;19.80;90.40
36710;DHT22;22694;51.040;3.684;2022-09-17T13:26:45;19.80;90.30
36710;DHT22;22694;51.040;3.684;2022-09-17T13:29:12;19.80;90.20
36710;DHT22;22694;51.040;3.684;2022-09-17T13:31:57;19.90;90.20
36710;DHT22;22694;51.040;3.684;2022-09-17T13:34:30;19.90;90.00
36710;DHT22;22694;51.040;3.684;2022-09-17T13:36:58;20.00;89.90
36710;DHT22;22694;51.040;3.684;2022-09-17T13:39:46;20.00;89.80
36710;DHT22;22694;51.040;3.684;2022-09-17T13:44:41;20.10;89.80
36710;DHT22;22694;51.040;3.684;2022-09-17T13:47:16;20.10;89.70
36710;DHT22;22694;51.040;3.684;2022-09-17T13:49:45;20.10;89.60
36710;DHT22;22694;51.040;3.684;2022-09-17T13:52:18;20.20;89.40
36710;DHT22;22694;51.040;3.684;2022-09-17T13:54:52;20.20;89.40
36710;DHT22;22694;51.040;3.684;2022-09-17T13:57:18;20.20;89.30
36710;DHT22;22694;51.040;3.684;2022-09-17T13:59:53;20.20;89.20
36710;DHT22;22694;51.040;3.684;2022-09-17T14:02:26;20.20;89.20
36710;DHT22;22694;51.040;3.684;2022-09-17T14:05:29;20.30;89.20
36710;DHT22;22694;51.040;3.684;2022-09-17T14:08:12;20.30;88.90
36710;DHT22;22694;51.040;3.684;2022-09-17T14:10:42;20.20;88.70
36710;DHT22;22694;51.040;3.684;2022-09-17T14:13:27;20.20;88.70
36710;DHT22;22694;51.040;3.684;2022-09-17T14:19:30;20.10;88.90
36710;DHT22;22694;51.040;3.684;2022-09-17T14:30:05;20.00;88.90
36710;DHT22;22694;51.040;3.684;2022-09-17T14:38:02;20.00;88.80
36710;DHT22;22694;51.040;3.684;2022-09-17T14:40:29;20.00;88.70
36710;DHT22;22694;51.040;3.684;2022-09-17T14:42:58;20.00;88.60
36710;DHT22;22694;51.040;3.684;2022-09-17T14:45:31;19.90;88.50
36710;DHT22;22694;51.040;3.684;2022-09-17T14:48:16;19.90;88.30
36710;DHT22;22694;51.040;3.684;2022-09-17T14:50:43;19.80;88.10
36710;DHT22;22694;51.040;3.684;2022-09-17T14:53:17;19.80;88.10
36710;DHT22;22694;51.040;3.684;2022-09-17T14:55:48;19.80;88.30
36710;DHT22;22694;51.040;3.684;2022-09-17T14:58:52;19.80;88.40
36710;DHT22;22694;51.040;3.684;2022-09-17T15:01:26;19.80;88.50
36710;DHT22;22694;51.040;3.684;2022-09-17T15:06:38;19.80;88.70
36710;DHT22;22694;51.040;3.684;2022-09-17T15:09:03;19.80;88.80
36710;DHT22;22694;51.040;3.684;2022-09-17T15:11:33;19.80;88.80
36710;DHT22;22694;51.040;3.684;2022-09-17T15:13:59;19.80;88.90
36710;DHT22;22694;51.040;3.684;2022-09-17T15:16:29;19.70;89.00
36710;DHT22;22694;51.040;3.684;2022-09-17T15:18:58;19.70;89.00
36710;DHT22;22694;51.040;3.684;2022-09-17T15:21:38;19.80;89.20
36710;DHT22;22694;51.040;3.684;2022-09-17T15:26:57;19.70;89.00
36710;DHT22;22694;51.040;3.684;2022-09-17T15:29:27;19.70;88.80
36710;DHT22;22694;51.040;3.684;2022-09-17T15:31:53;19.70;88.90
36710;DHT22;22694;51.040;3.684;2022-09-17T15:34:19;19.70;89.00
36710;DHT22;22694;51.040;3.684;2022-09-17T15:37:05;19.70;88.90
36710;DHT22;22694;51.040;3.684;2022-09-17T15:39:39;19.60;89.00
36710;DHT22;22694;51.040;3.684;2022-09-17T15:42:05;19.60;89.70
36710;DHT22;22694;51.040;3.684;2022-09-17T15:44:30;19.60;88.40
36710;DHT22;22694;51.040;3.684;2022-09-17T15:47:36;19.60;88.10
36710;DHT22;22694;51.040;3.684;2022-09-17T15:50:16;19.60;88.10
36710;DHT22;22694;51.040;3.684;2022-09-17T15:52:43;19.60;88.90
36710;DHT22;22694;51.040;3.684;2022-09-17T15:55:35;19.50;89.30
36710;DHT22;22694;51.040;3.684;2022-09-17T15:58:04;19.50;89.10
36710;DHT22;22694;51.040;3.684;2022-09-17T16:00:30;19.50;88.70
36710;DHT22;22694;51.040;3.684;2022-09-17T16:03:28;19.50;88.20
36710;DHT22;22694;51.040;3.684;2022-09-17T16:05:54;19.40;88.10
36710;DHT22;22694;51.040;3.684;2022-09-17T16:08:21;19.40;88.00
36710;DHT22;22694;51.040;3.684;2022-09-17T16:10:47;19.40;88.10
36710;DHT22;22694;51.040;3.684;2022-09-17T16:13:13;19.30;88.10
36710;DHT22;22694;51.040;3.684;2022-09-17T16:15:39;19.30;88.10
36710;DHT22;22694;51.040;3.684;2022-09-17T16:18:04;19.30;88.70
36710;DHT22;22694;51.040;3.684;2022-09-17T16:20:30;19.30;88.70
36710;DHT22;22694;51.040;3.684;2022-09-17T16:22:56;19.40;89.20
36710;DHT22;22694;51.040;3.684;2022-09-17T16:25:24;19.40;89.50
36710;DHT22;22694;51.040;3.684;2022-09-17T16:27:57;19.50;89.70
36710;DHT22;22694;51.040;3.684;2022-09-17T16:30:24;19.50;89.70
36710;DHT22;22694;51.040;3.684;2022-09-17T16:32:50;19.50;89.60
36710;DHT22;22694;51.040;3.684;2022-09-17T16:35:19;19.60;89.60
36710;DHT22;22694;51.040;3.684;2022-09-17T16:37:53;19.60;89.50
36710;DHT22;22694;51.040;3.684;2022-09-17T16:40:20;19.50;88.70
36710;DHT22;22694;51.040;3.684;2022-09-17T16:42:46;19.40;88.60
36710;DHT22;22694;51.040;3.684;2022-09-17T16:45:14;19.40;88.50
36710;DHT22;22694;51.040;3.684;2022-09-17T16:47:40;19.40;88.70
36710;DHT22;22694;51.040;3.684;2022-09-17T16:50:09;19.30;88.50
36710;DHT22;22694;51.040;3.684;2022-09-17T16:52:35;19.30;88.70
36710;DHT22;22694;51.040;3.684;2022-09-17T16:55:01;19.30;88.70
36710;DHT22;22694;51.040;3.684;2022-09-17T16:57:29;19.20;88.70
36710;DHT22;22694;51.040;3.684;2022-09-17T16:59:54;19.20;88.80
36710;DHT22;22694;51.040;3.684;2022-09-17T17:02:20;19.20;88.80
36710;DHT22;22694;51.040;3.684;2022-09-17T17:04:46;19.20;88.70
36710;DHT22;22694;51.040;3.684;2022-09-17T17:07:12;19.10;88.70
36710;DHT22;22694;51.040;3.684;2022-09-17T17:09:38;19.10;88.70
36710;DHT22;22694;51.040;3.684;2022-09-17T17:12:04;19.10;88.80
36710;DHT22;22694;51.040;3.684;2022-09-17T17:14:30;19.10;88.70
36710;DHT22;22694;51.040;3.684;2022-09-17T17:16:56;19.10;88.70
36710;DHT22;22694;51.040;3.684;2022-09-17T17:19:21;19.00;88.60
36710;DHT22;22694;51.040;3.684;2022-09-17T17:21:49;19.00;88.60
36710;DHT22;22694;51.040;3.684;2022-09-17T17:24:15;19.00;88.60
36710;DHT22;22694;51.040;3.684;2022-09-17T17:26:41;19.00;88.70
36710;DHT22;22694;51.040;3.684;2022-09-17T17:29:06;19.00;89.20
36710;DHT22;22694;51.040;3.684;2022-09-17T17:31:33;18.90;88.50
36710;DHT22;22694;51.040;3.684;2022-09-17T17:33:59;18.90;88.60
36710;DHT22;22694;51.040;3.684;2022-09-17T17:36:24;18.90;88.60
36710;DHT22;22694;51.040;3.684;2022-09-17T17:38:55;18.90;88.60
36710;DHT22;22694;51.040;3.684;2022-09-17T17:41:21;18.90;88.50
36710;DHT22;22694;51.040;3.684;2022-09-17T17:43:51;18.90;88.50
36710;DHT22;22694;51.040;3.684;2022-09-17T17:46:17;18.90;88.50
36710;DHT22;22694;51.040;3.684;2022-09-17T17:48:42;18.80;88.60
36710;DHT22;22694;51.040;3.684;2022-09-17T17:51:09;18.80;88.80
36710;DHT22;22694;51.040;3.684;2022-09-17T17:53:44;18.90;88.70
36710;DHT22;22694;51.040;3.684;2022-09-17T17:56:11;18.80;88.70
36710;DHT22;22694;51.040;3.684;2022-09-17T17:58:37;18.80;88.70
36710;DHT22;22694;51.040;3.684;2022-09-17T18:01:21;18.80;88.60
36710;DHT22;22694;51.040;3.684;2022-09-17T18:03:47;18.80;88.70
36710;DHT22;22694;51.040;3.684;2022-09-17T18:06:13;18.80;88.60
36710;DHT22;22694;51.040;3.684;2022-09-17T18:08:40;18.90;89.80
36710;DHT22;22694;51.040;3.684;2022-09-17T18:11:08;18.90;90.00
36710;DHT22;22694;51.040;3.684;2022-09-17T18:13:35;19.00;89.70
36710;DHT22;22694;51.040;3.684;2022-09-17T18:16:02;18.90;89.30
36710;DHT22;22694;51.040;3.684;2022-09-17T18:18:36;18.90;89.30
36710;DHT22;22694;51.040;3.684;2022-09-17T18:21:05;18.90;89.20
36710;DHT22;22694;51.040;3.684;2022-09-17T18:23:33;18.90;89.50
36710;DHT22;22694;51.040;3.684;2022-09-17T18:26:00;19.10;90.80
36710;DHT22;22694;51.040;3.684;2022-09-17T18:28:27;19.20;90.70
36710;DHT22;22694;51.040;3.684;2022-09-17T18:30:53;19.20;90.40
36710;DHT22;22694;51.040;3.684;2022-09-17T18:33:21;19.30;90.10
36710;DHT22;22694;51.040;3.684;2022-09-17T18:35:48;19.20;89.40
36710;DHT22;22694;51.040;3.684;2022-09-17T18:38:15;19.10;89.00
36710;DHT22;22694;51.040;3.684;2022-09-17T18:40:42;19.10;88.80
36710;DHT22;22694;51.040;3.684;2022-09-17T18:43:08;19.10;88.70
36710;DHT22;22694;51.040;3.684;2022-09-17T18:45:34;19.10;88.70